Time;durP1;ratioP1;P1;durP2;ratioP2;P2;SDS_P1;SDS_P2;PMS_P1;PMS_P2;Temp;Humidity;BMP_temperature;BMP_pressure;BME280_temperature;BME280_humidity;BME280_pressure;Samples;Min_cycle;Max_cycle;Signal;HPM_P1;HPM_P2
2021/08/16 00:00:50;;;;;;;;;;;;;;;29.87;45.63;100826.36;128968;1083;64106;-86
2021/08/16 00:03:16;;;;;;;;;;;;;;;29.86;45.59;100821.92;128965;1083;64163;-85
2021/08/16 00:05:44;;;;;;;;;;;;;;;29.87;45.63;100818.19;128912;1084;64160;-86
2021/08/16 00:08:10;;;;;;;;;;;;;;;29.86;45.59;100819.20;128950;1084;64201;-86
2021/08/16 00:10:39;;;;;;;;;;;;;;;29.85;45.86;100798.41;128553;1082;64093;-86
2021/08/16 00:13:05;;;;;;;;;;;;;;;29.86;45.86;100805.59;128896;1084;64307;-86
2021/08/16 00:15:31;;;;;;;;;;;;;;;29.86;45.66;100802.00;128925;1084;64090;-85
2021/08/16 00:17:59;;;;;;;;;;;;;;;29.86;45.71;100802.00;128967;1084;64201;-86
2021/08/16 00:20:25;;;;;;;;;;;;;;;29.85;45.68;100812.02;128965;1084;64134;-86
2021/08/16 00:22:52;;;;;;;;;;;;;;;29.85;45.63;100797.58;128925;1084;64154;-85
2021/08/16 00:25:18;;;;;;;;;;;;;;;29.85;45.99;100797.58;128536;1084;64117;-85
2021/08/16 00:27:47;;;;;;;;;;;;;;;29.85;45.52;100792.13;128941;1084;64144;-85
2021/08/16 00:30:13;;;;;;;;;;;;;;;29.84;46.03;100796.70;128946;1084;64204;-86
2021/08/16 00:32:40;;;;;;;;;;;;;;;29.84;45.49;100802.15;128919;1084;64254;-86
2021/08/16 00:35:06;;;;;;;;;;;;;;;29.85;45.57;100803.02;128925;1084;64153;-87
2021/08/16 00:37:32;;;;;;;;;;;;;;;29.84;45.73;100807.59;128953;1083;64230;-85
2021/08/16 00:39:58;;;;;;;;;;;;;;;29.84;45.54;100813.03;128526;1084;64145;-85
2021/08/16 00:42:25;;;;;;;;;;;;;;;29.83;45.60;100814.08;128927;1084;64358;-85
2021/08/16 00:44:52;;;;;;;;;;;;;;;29.84;45.73;100814.91;128907;1082;64125;-85
2021/08/16 00:47:21;;;;;;;;;;;;;;;29.83;45.59;100815.92;128963;1084;64301;-86
2021/08/16 00:49:47;;;;;;;;;;;;;;;29.83;45.67;100808.63;128924;1084;63913;-87
2021/08/16 00:52:17;;;;;;;;;;;;;;;29.83;46.15;100813.20;128922;1084;64281;-86
2021/08/16 00:54:43;;;;;;;;;;;;;;;29.82;45.58;100817.80;128943;1083;63980;-86
2021/08/16 00:57:10;;;;;;;;;;;;;;;29.83;45.96;100813.20;128529;1082;64170;-86
2021/08/16 00:59:36;;;;;;;;;;;;;;;29.82;46.03;100812.36;128946;1082;64233;-85
2021/08/16 01:02:02;;;;;;;;;;;;;;;29.83;46.22;100814.08;128941;1084;64205;-86
2021/08/16 01:04:28;;;;;;;;;;;;;;;29.83;46.12;100810.48;128940;1084;64232;-87
2021/08/16 01:06:55;;;;;;;;;;;;;;;29.81;45.90;100810.66;128945;1084;64138;-85
2021/08/16 01:09:21;;;;;;;;;;;;;;;29.83;45.60;100810.48;128929;1084;64144;-86
2021/08/16 01:11:49;;;;;;;;;;;;;;;29.82;45.59;100798.77;128923;1084;64089;-86
2021/08/16 01:14:16;;;;;;;;;;;;;;;29.82;45.87;100806.05;128928;1082;64116;-85
2021/08/16 01:16:42;;;;;;;;;;;;;;;29.81;46.04;100796.21;128992;1084;64584;-86
2021/08/16 01:19:10;;;;;;;;;;;;;;;29.81;45.65;100799.77;128916;1084;64138;-87
2021/08/16 01:21:36;;;;;;;;;;;;;;;29.81;46.18;100797.05;128937;1084;64089;-86
2021/08/16 01:24:04;;;;;;;;;;;;;;;29.81;45.99;100794.33;128922;1084;64135;-85
2021/08/16 01:26:31;;;;;;;;;;;;;;;29.82;46.15;100789.73;128935;1084;64385;-86
2021/08/16 01:28:57;;;;;;;;;;;;;;;29.81;45.94;100802.49;128915;1084;64253;-86
2021/08/16 01:31:24;;;;;;;;;;;;;;;29.81;45.65;100799.77;128923;1084;64093;-86
2021/08/16 01:33:50;;;;;;;;;;;;;;;29.81;46.13;100793.49;128952;1084;64147;-86
2021/08/16 01:36:16;;;;;;;;;;;;;;;29.82;45.70;100795.17;128942;1084;64092;-86
2021/08/16 01:38:43;;;;;;;;;;;;;;;29.81;46.16;100793.49;128950;1084;64298;-85
2021/08/16 01:41:10;;;;;;;;;;;;;;;29.81;46.28;100804.38;128916;1084;64224;-85
2021/08/16 01:43:36;;;;;;;;;;;;;;;29.81;46.30;100791.61;128935;1084;64149;-86
2021/08/16 01:46:04;;;;;;;;;;;;;;;29.79;46.36;100795.52;128948;1084;62381;-85
2021/08/16 01:48:33;;;;;;;;;;;;;;;29.80;46.28;100791.78;128906;1084;64121;-85
2021/08/16 01:50:59;;;;;;;;;;;;;;;29.80;46.26;100795.34;128916;1084;64099;-85
2021/08/16 01:53:25;;;;;;;;;;;;;;;29.79;46.35;100796.35;128955;1082;64217;-86
2021/08/16 01:55:51;;;;;;;;;;;;;;;29.80;46.03;100794.50;128548;1084;64712;-86
2021/08/16 01:58:17;;;;;;;;;;;;;;;29.79;46.04;100790.07;128937;1084;64221;-86
2021/08/16 02:00:43;;;;;;;;;;;;;;;29.79;45.77;100787.35;128941;1084;64250;-86
2021/08/16 02:03:10;;;;;;;;;;;;;;;29.78;46.29;100783.80;128922;1084;64150;-87
2021/08/16 02:05:36;;;;;;;;;;;;;;;29.78;46.09;100783.80;128952;1084;64143;-85
2021/08/16 02:08:02;;;;;;;;;;;;;;;29.79;45.74;100790.07;128509;1084;64121;-86
2021/08/16 02:10:32;;;;;;;;;;;;;;;29.78;45.65;100786.52;128915;1084;64192;-86
2021/08/16 02:12:58;;;;;;;;;;;;;;;29.78;45.72;100783.80;128915;1084;64577;-87
2021/08/16 02:15:26;;;;;;;;;;;;;;;29.78;46.06;100789.23;128966;1084;64141;-86
2021/08/16 02:17:52;;;;;;;;;;;;;;;29.78;45.65;100789.23;128938;1084;64093;-86
2021/08/16 02:20:22;;;;;;;;;;;;;;;29.78;45.85;100794.67;128925;1084;64128;-85
2021/08/16 02:22:48;;;;;;;;;;;;;;;29.78;45.62;100788.36;128924;1084;64128;-86
2021/08/16 02:25:14;;;;;;;;;;;;;;;29.78;45.70;100785.64;128938;1084;64141;-86
2021/08/16 02:27:44;;;;;;;;;;;;;;;29.77;45.67;100784.80;128945;1084;64147;-85
2021/08/16 02:30:11;;;;;;;;;;;;;;;29.78;45.62;100789.23;128904;1084;64091;-85
2021/08/16 02:32:37;;;;;;;;;;;;;;;29.78;45.62;100782.92;128919;1084;64134;-85
2021/08/16 02:35:03;;;;;;;;;;;;;;;29.76;45.86;100792.13;128974;1084;64151;-85
2021/08/16 02:37:53;;;;;;;;;;;;;;;29.77;45.53;100784.80;128930;1084;64227;-86
2021/08/16 02:40:19;;;;;;;;;;;;;;;29.77;46.02;100790.25;128403;1087;64121;-86
2021/08/16 02:42:45;;;;;;;;;;;;;;;29.77;45.81;100792.97;128372;1086;64111;-86
2021/08/16 02:45:13;;;;;;;;;;;;;;;29.78;45.63;100788.36;128410;1087;64264;-86
2021/08/16 02:47:39;;;;;;;;;;;;;;;29.76;45.55;100800.29;128392;1087;64269;-85
2021/08/16 02:50:05;;;;;;;;;;;;;;;29.76;45.92;100800.29;128408;1086;64205;-86
2021/08/16 02:52:35;;;;;;;;;;;;;;;29.77;45.85;100806.57;128391;1087;64117;-86
2021/08/16 02:55:01;;;;;;;;;;;;;;;29.76;46.01;100803.01;128405;1086;64074;-86
2021/08/16 02:57:30;;;;;;;;;;;;;;;29.76;45.60;100797.56;128379;1087;64096;-86
2021/08/16 02:59:56;;;;;;;;;;;;;;;29.76;45.73;100805.73;128362;1087;64458;-86
2021/08/16 03:02:22;;;;;;;;;;;;;;;29.76;46.01;100789.41;128443;1087;64128;-86
2021/08/16 03:04:48;;;;;;;;;;;;;;;29.76;46.01;100803.01;128433;1086;64161;-86
2021/08/16 03:07:14;;;;;;;;;;;;;;;29.76;45.62;100807.58;128414;1087;64267;-86
2021/08/16 03:09:40;;;;;;;;;;;;;;;29.76;45.48;100802.14;128416;1087;64627;-86
2021/08/16 03:12:07;;;;;;;;;;;;;;;29.75;45.43;100806.74;128402;1087;64076;-86
2021/08/16 03:14:33;;;;;;;;;;;;;;;29.75;45.90;100800.43;128415;1086;64154;-85
2021/08/16 03:16:59;;;;;;;;;;;;;;;29.75;45.65;100793.14;128445;1087;64247;-86
2021/08/16 03:19:28;;;;;;;;;;;;;;;29.74;45.52;100799.59;128951;1084;64158;-87
2021/08/16 03:21:54;;;;;;;;;;;;;;;29.75;45.87;100800.43;128935;1084;64208;-86
2021/08/16 03:24:20;;;;;;;;;;;;;;;29.75;45.52;100803.16;128955;1084;64184;-86
2021/08/16 03:26:46;;;;;;;;;;;;;;;29.74;45.51;100802.31;128956;1084;64687;-85
2021/08/16 03:29:12;;;;;;;;;;;;;;;29.75;45.65;100803.16;128917;1084;64124;-85
2021/08/16 03:31:38;;;;;;;;;;;;;;;29.74;45.58;100802.31;128934;1084;64128;-85
2021/08/16 03:34:05;;;;;;;;;;;;;;;29.74;45.58;100796.03;128918;1084;64358;-85
2021/08/16 03:36:31;;;;;;;;;;;;;;;29.74;45.77;100804.20;128970;1084;64094;-85
2021/08/16 03:38:57;;;;;;;;;;;;;;;29.74;46.08;100798.75;128949;1082;64169;-85
2021/08/16 03:41:23;;;;;;;;;;;;;;;29.74;45.71;100799.59;128913;1084;64587;-86
2021/08/16 03:43:49;;;;;;;;;;;;;;;29.74;46.02;100809.63;128517;1084;64275;-86
2021/08/16 03:46:15;;;;;;;;;;;;;;;29.73;45.69;100803.33;128951;1083;64102;-85
2021/08/16 03:48:41;;;;;;;;;;;;;;;29.74;46.07;100806.91;128945;1084;64151;-85
2021/08/16 03:51:07;;;;;;;;;;;;;;;29.74;45.98;100809.63;129007;1084;64311;-85
2021/08/16 03:53:33;;;;;;;;;;;;;;;29.74;45.68;100807.75;128965;1083;64151;-85
2021/08/16 03:55:59;;;;;;;;;;;;;;;29.74;45.57;100806.91;129030;1084;65335;-85
2021/08/16 03:58:25;;;;;;;;;;;;;;;29.75;46.03;100811.31;129118;1084;62888;-84
2021/08/16 04:00:51;;;;;;;;;;;;;;;29.75;45.58;100809.47;129181;1084;64208;-83
2021/08/16 04:03:17;;;;;;;;;;;;;;;29.76;46.00;100822.05;129081;1084;64111;-85
2021/08/16 04:05:44;;;;;;;;;;;;;;;29.76;46.05;100816.61;128939;1084;64172;-85
2021/08/16 04:08:11;;;;;;;;;;;;;;;29.77;46.05;100820.17;128568;1082;64331;-85
2021/08/16 04:10:40;;;;;;;;;;;;;;;29.77;45.90;100820.17;128913;1083;64224;-86
2021/08/16 04:13:13;;;;;;;;;;;;;;;29.77;45.56;100814.73;128940;1083;64124;-87
2021/08/16 04:15:39;;;;;;;;;;;;;;;29.78;45.90;100815.57;128924;1083;64207;-86
2021/08/16 04:18:08;;;;;;;;;;;;;;;29.77;45.53;100814.73;128941;1084;64156;-85
2021/08/16 04:20:36;;;;;;;;;;;;;;;29.78;45.54;100816.44;128939;1084;64127;-86
2021/08/16 04:23:02;;;;;;;;;;;;;;;29.76;45.80;100807.58;128916;1082;64202;-85
2021/08/16 04:25:28;;;;;;;;;;;;;;;29.76;46.06;100811.17;128931;1084;62482;-85
2021/08/16 04:27:54;;;;;;;;;;;;;;;29.76;45.66;100807.58;128933;1084;64125;-85
2021/08/16 04:30:20;;;;;;;;;;;;;;;29.75;45.92;100798.58;128887;1084;64339;-85
2021/08/16 04:32:46;;;;;;;;;;;;;;;29.76;45.50;100804.86;128517;1082;64157;-86
2021/08/16 04:35:13;;;;;;;;;;;;;;;29.75;46.00;100805.88;128518;1084;64342;-85
2021/08/16 04:37:40;;;;;;;;;;;;;;;29.75;45.57;100809.47;128913;1084;64169;-86
2021/08/16 04:40:06;;;;;;;;;;;;;;;29.75;45.87;100804.02;128548;1084;64138;-85
2021/08/16 04:42:32;;;;;;;;;;;;;;;29.75;45.43;100806.74;128926;1084;64140;-85
2021/08/16 04:45:00;;;;;;;;;;;;;;;29.75;45.53;100814.03;128953;1082;64137;-85
2021/08/16 04:47:27;;;;;;;;;;;;;;;29.74;45.64;100813.19;128941;1084;64173;-85
2021/08/16 04:49:57;;;;;;;;;;;;;;;29.74;45.84;100809.63;128894;1084;64165;-82
2021/08/16 04:52:24;;;;;;;;;;;;;;;29.74;45.41;100804.20;128885;1084;64205;-85
2021/08/16 04:54:51;;;;;;;;;;;;;;;29.74;45.47;100804.20;128888;1084;64150;-86
2021/08/16 04:57:30;;;;;;;;;;;;;;;29.73;45.71;100802.48;128950;1084;64125;-86
2021/08/16 04:59:56;;;;;;;;;;;;;;;29.73;45.47;100800.60;128757;1083;64119;-85
2021/08/16 05:02:22;;;;;;;;;;;;;;;29.73;45.61;100811.48;128833;1082;64135;-84
2021/08/16 05:04:53;;;;;;;;;;;;;;;29.74;45.66;100815.91;128387;1082;64118;-84
2021/08/16 05:07:19;;;;;;;;;;;;;;;29.74;45.46;100815.91;128838;1084;64137;-85
2021/08/16 05:09:45;;;;;;;;;;;;;;;29.74;45.83;100812.36;128936;1082;64246;-86
2021/08/16 05:12:13;;;;;;;;;;;;;;;29.74;45.14;100815.91;128866;1084;64149;-85
2021/08/16 05:14:38;;;;;;;;;;;;;;;29.74;45.58;100817.80;128944;1084;64549;-85
2021/08/16 05:17:05;;;;;;;;;;;;;;;29.74;45.17;100813.19;128985;1084;64202;-86
2021/08/16 05:19:34;;;;;;;;;;;;;;;29.75;45.46;100820.34;128949;1083;64128;-85
2021/08/16 05:22:12;;;;;;;;;;;;;;;29.75;45.08;100825.79;128926;1084;64131;-85
2021/08/16 05:24:38;;;;;;;;;;;;;;;29.76;44.83;100826.63;128988;1084;62906;-86
2021/08/16 05:27:04;;;;;;;;;;;;;;;29.75;45.08;100825.79;128952;1084;64163;-86
2021/08/16 05:29:33;;;;;;;;;;;;;;;29.76;44.93;100829.34;128927;1084;64180;-86
2021/08/16 05:31:59;;;;;;;;;;;;;;;29.75;44.98;100825.79;128890;1084;64134;-85
2021/08/16 05:34:27;;;;;;;;;;;;;;;29.76;44.57;100823.91;128906;1084;64105;-85
2021/08/16 05:36:53;;;;;;;;;;;;;;;29.76;44.77;100821.19;128951;1084;64124;-84
2021/08/16 05:39:19;;;;;;;;;;;;;;;29.76;45.10;100823.91;128885;1083;64240;-85
2021/08/16 05:41:44;;;;;;;;;;;;;;;29.78;44.81;100823.73;128801;1082;64141;-86
2021/08/16 05:44:10;;;;;;;;;;;;;;;29.76;44.53;100819.33;128928;1084;64138;-84
2021/08/16 05:46:36;;;;;;;;;;;;;;;29.77;44.80;100825.61;128910;1084;64242;-85
2021/08/16 05:49:02;;;;;;;;;;;;;;;29.78;44.52;100821.02;128809;1083;64137;-84
2021/08/16 05:51:28;;;;;;;;;;;;;;;29.79;44.79;100828.16;128813;1082;64208;-85
2021/08/16 05:53:55;;;;;;;;;;;;;;;29.80;44.36;100819.83;128773;1082;64195;-85
2021/08/16 05:56:21;;;;;;;;;;;;;;;29.80;44.55;100825.27;128868;1084;64149;-85
2021/08/16 05:58:47;;;;;;;;;;;;;;;29.80;44.25;100825.27;128900;1083;64170;-86
2021/08/16 06:01:13;;;;;;;;;;;;;;;29.81;44.70;100824.26;128908;1084;64226;-85
2021/08/16 06:03:39;;;;;;;;;;;;;;;29.82;44.53;100825.97;128863;1082;64137;-85
2021/08/16 06:06:05;;;;;;;;;;;;;;;29.82;44.06;100819.66;128825;1084;64174;-84
2021/08/16 06:08:32;;;;;;;;;;;;;;;29.83;43.87;100824.09;128870;1084;64133;-84
2021/08/16 06:10:59;;;;;;;;;;;;;;;29.84;44.05;100829.36;128903;1084;64246;-85
2021/08/16 06:13:25;;;;;;;;;;;;;;;29.84;44.43;100833.96;128731;1084;64387;-85
2021/08/16 06:15:50;;;;;;;;;;;;;;;29.84;44.23;100829.36;128914;1084;64134;-85
2021/08/16 06:18:17;;;;;;;;;;;;;;;29.84;44.05;100832.08;128998;1084;64089;-85
2021/08/16 06:20:42;;;;;;;;;;;;;;;29.84;44.11;100834.80;128556;1084;64342;-85
2021/08/16 06:23:08;;;;;;;;;;;;;;;29.85;44.00;100831.06;128902;1084;64565;-85
2021/08/16 06:25:36;;;;;;;;;;;;;;;29.85;43.81;100839.23;128918;1081;64214;-85
2021/08/16 06:28:05;;;;;;;;;;;;;;;29.86;44.23;100840.09;128926;1084;64150;-85
2021/08/16 06:30:31;;;;;;;;;;;;;;;29.86;43.80;100840.09;128943;1084;64250;-85
2021/08/16 06:32:57;;;;;;;;;;;;;;;29.86;43.88;100840.97;128894;1084;64131;-85
2021/08/16 06:35:24;;;;;;;;;;;;;;;29.87;43.82;100847.25;128918;1082;64272;-85
2021/08/16 06:37:50;;;;;;;;;;;;;;;29.87;43.80;100848.13;128926;1084;61690;-85
2021/08/16 06:40:16;;;;;;;;;;;;;;;29.89;43.79;100847.95;128952;1084;64221;-86
2021/08/16 06:42:43;;;;;;;;;;;;;;;29.88;43.42;100847.08;128913;1082;64136;-86
2021/08/16 06:45:09;;;;;;;;;;;;;;;29.89;43.38;100845.23;128884;1084;64131;-85
2021/08/16 06:47:35;;;;;;;;;;;;;;;29.90;43.08;100839.62;128924;1082;64093;-85
2021/08/16 06:50:02;;;;;;;;;;;;;;;29.90;43.54;100838.78;128903;1084;64130;-85
2021/08/16 06:52:28;;;;;;;;;;;;;;;29.90;43.62;100836.89;128931;1084;64234;-85
2021/08/16 06:54:56;;;;;;;;;;;;;;;29.91;43.41;100848.62;128900;1082;64364;-85
2021/08/16 06:57:24;;;;;;;;;;;;;;;29.91;43.47;100846.77;128916;1083;63025;-84
2021/08/16 06:59:51;;;;;;;;;;;;;;;29.91;42.96;100845.90;128945;1082;64124;-85
2021/08/16 07:02:43;;;;;;;;;;;;;;;29.91;43.07;100849.48;128922;1084;64208;-85
2021/08/16 07:05:09;;;;;;;;;;;;;;;29.93;43.22;100862.92;128408;1087;64206;-86
2021/08/16 07:07:35;;;;;;;;;;;;;;;29.93;43.23;100868.37;128330;1087;64211;-85
2021/08/16 07:10:01;;;;;;;;;;;;;;;29.93;43.17;100858.32;128285;1084;64313;-84
2021/08/16 07:12:27;;;;;;;;;;;;;;;29.95;42.75;100862.75;128314;1086;64156;-86
2021/08/16 07:15:19;;;;;;;;;;;;;;;29.95;42.70;100857.31;128346;1087;64131;-84
2021/08/16 07:17:45;;;;;;;;;;;;;;;29.96;43.10;100867.19;127849;1087;64176;-86
2021/08/16 07:20:12;;;;;;;;;;;;;;;29.97;42.72;100867.02;127892;1087;64274;-85
2021/08/16 07:22:38;;;;;;;;;;;;;;;29.97;42.60;100864.29;127916;1086;64131;-85
2021/08/16 07:25:06;;;;;;;;;;;;;;;29.98;42.76;100865.13;127876;1087;64140;-86
2021/08/16 07:27:32;;;;;;;;;;;;;;;29.99;42.40;100866.84;127902;1087;64137;-85
2021/08/16 07:29:58;;;;;;;;;;;;;;;29.99;42.85;100869.56;127959;1085;64215;-86
2021/08/16 07:32:24;;;;;;;;;;;;;;;29.98;42.37;100866.00;127846;1087;64191;-85
2021/08/16 07:34:51;;;;;;;;;;;;;;;29.99;42.41;100867.68;127928;1087;64202;-85
2021/08/16 07:37:17;;;;;;;;;;;;;;;30.00;42.40;100868.55;127936;1087;64169;-85
2021/08/16 07:39:43;;;;;;;;;;;;;;;30.00;42.74;100866.67;127936;1087;64163;-85
2021/08/16 07:42:09;;;;;;;;;;;;;;;30.00;42.63;100863.11;128063;1087;64225;-87
2021/08/16 07:44:35;;;;;;;;;;;;;;;30.01;42.10;100864.81;128048;1087;64153;-85
2021/08/16 07:47:03;;;;;;;;;;;;;;;30.00;42.11;100861.22;128405;1086;64208;-86
2021/08/16 07:49:30;;;;;;;;;;;;;;;30.00;42.14;100860.39;128407;1087;64248;-85
2021/08/16 07:51:56;;;;;;;;;;;;;;;30.00;42.05;100858.50;128383;1085;62068;-85
2021/08/16 07:54:22;;;;;;;;;;;;;;;30.00;42.08;100855.78;128475;1084;64231;-85
2021/08/16 07:56:51;;;;;;;;;;;;;;;30.01;41.92;100851.20;129024;1081;64157;-85
2021/08/16 07:59:18;;;;;;;;;;;;;;;30.02;42.49;100855.61;129000;1082;64167;-85
2021/08/16 08:01:44;;;;;;;;;;;;;;;30.02;41.99;100852.89;129021;1083;64121;-86
2021/08/16 08:04:10;;;;;;;;;;;;;;;30.02;41.90;100863.77;129120;1083;62925;-85
2021/08/16 08:06:36;;;;;;;;;;;;;;;30.02;42.01;100861.92;129061;1084;64176;-84
2021/08/16 08:09:02;;;;;;;;;;;;;;;30.03;41.86;100854.59;128999;1084;64092;-85
2021/08/16 08:11:28;;;;;;;;;;;;;;;30.03;41.99;100851.88;128936;1084;64127;-85
2021/08/16 08:13:54;;;;;;;;;;;;;;;30.03;42.25;100857.31;128932;1084;64195;-85
2021/08/16 08:16:20;;;;;;;;;;;;;;;30.03;41.99;100858.19;128894;1084;64134;-85
2021/08/16 08:18:46;;;;;;;;;;;;;;;30.03;41.66;100849.16;128929;1082;64202;-84
2021/08/16 08:21:12;;;;;;;;;;;;;;;30.04;41.66;100850.86;129007;1082;64303;-85
2021/08/16 08:23:41;;;;;;;;;;;;;;;30.04;42.03;100856.30;128922;1084;63949;-85
2021/08/16 08:26:07;;;;;;;;;;;;;;;30.03;41.74;100847.30;128915;1084;64131;-85
2021/08/16 08:28:33;;;;;;;;;;;;;;;30.04;41.61;100853.59;128916;1084;64140;-85
2021/08/16 08:30:59;;;;;;;;;;;;;;;30.04;41.56;100850.86;128932;1082;64135;-85
2021/08/16 08:33:26;;;;;;;;;;;;;;;30.03;41.75;100847.30;128830;1084;64154;-83
2021/08/16 08:35:53;;;;;;;;;;;;;;;30.02;41.73;100834.70;128774;1084;64163;-85
2021/08/16 08:38:19;;;;;;;;;;;;;;;30.04;41.49;100837.25;128844;1082;64150;-87
2021/08/16 08:40:45;;;;;;;;;;;;;;;30.05;41.38;100833.52;128914;1083;64095;-85
2021/08/16 08:43:15;;;;;;;;;;;;;;;30.03;41.45;100836.41;128925;1084;64128;-86
2021/08/16 08:46:04;;;;;;;;;;;;;;;30.04;41.68;100831.81;128909;1084;64134;-85
2021/08/16 08:48:30;;;;;;;;;;;;;;;30.04;41.73;100826.36;128383;1086;64131;-85
2021/08/16 08:50:58;;;;;;;;;;;;;;;30.04;41.21;100823.64;128398;1086;64217;-85
2021/08/16 08:53:24;;;;;;;;;;;;;;;30.04;41.40;100824.48;128359;1085;64134;-85
2021/08/16 08:55:50;;;;;;;;;;;;;;;30.05;41.43;100828.91;128355;1085;64233;-86
2021/08/16 08:58:17;;;;;;;;;;;;;;;30.05;41.31;100828.08;128413;1087;64386;-85
2021/08/16 09:00:43;;;;;;;;;;;;;;;30.05;41.13;100825.35;128357;1087;64266;-85
2021/08/16 09:03:09;;;;;;;;;;;;;;;30.05;41.05;100826.19;128415;1085;64278;-85
2021/08/16 09:05:52;;;;;;;;;;;;;;;30.06;41.04;100824.31;128365;1087;64121;-85
2021/08/16 09:08:42;;;;;;;;;;;;;;;;;;;;;
2021/08/16 09:11:10;;;;;;;;;;;;;;;30.06;40.86;100818.87;128414;1086;64122;-86
2021/08/16 09:13:36;;;;;;;;;;;;;;;30.06;40.86;100814.29;128408;1087;64384;-85
2021/08/16 09:16:09;;;;;;;;;;;;;;;30.06;40.91;100816.14;128373;1085;64434;-85
2021/08/16 09:18:35;;;;;;;;;;;;;;;30.06;41.15;100817.02;128398;1086;64156;-86
2021/08/16 09:21:02;;;;;;;;;;;;;;;30.06;41.01;100811.56;128404;1085;64154;-85
2021/08/16 09:23:29;;;;;;;;;;;;;;;30.06;40.78;100806.13;128404;1085;64137;-86
2021/08/16 09:25:55;;;;;;;;;;;;;;;30.05;40.75;100801.70;128457;1084;64272;-85
2021/08/16 09:28:25;;;;;;;;;;;;;;;30.06;40.66;100802.53;128898;1084;64166;-85
2021/08/16 09:30:51;;;;;;;;;;;;;;;30.06;40.22;100802.53;128954;1083;64122;-86
2021/08/16 09:33:18;;;;;;;;;;;;;;;30.05;40.76;100801.70;128936;1082;64099;-87
2021/08/16 09:35:51;;;;;;;;;;;;;;;30.06;40.85;100806.13;128947;1084;64141;-85
2021/08/16 09:38:17;;;;;;;;;;;;;;;30.06;40.15;100797.09;128925;1084;64125;-85
2021/08/16 09:40:42;;;;;;;;;;;;;;;30.06;40.15;100792.52;128933;1082;64128;-85
2021/08/16 09:43:09;;;;;;;;;;;;;;;30.07;40.66;100791.50;128920;1084;64131;-85
2021/08/16 09:45:38;;;;;;;;;;;;;;;30.06;40.64;100784.35;128927;1084;64169;-85
2021/08/16 09:48:05;;;;;;;;;;;;;;;30.06;40.74;100787.08;128897;1084;64122;-85
2021/08/16 09:50:42;;;;;;;;;;;;;;;30.08;40.36;100784.17;128934;1083;64215;-85
2021/08/16 09:53:08;;;;;;;;;;;;;;;30.07;40.31;100785.19;128911;1084;64253;-85
2021/08/16 09:55:37;;;;;;;;;;;;;;;30.07;40.88;100775.17;128900;1084;64115;-85
2021/08/16 09:58:04;;;;;;;;;;;;;;;30.07;40.76;100775.17;128933;1084;64194;-85
2021/08/16 10:00:30;;;;;;;;;;;;;;;30.06;40.48;100770.74;128960;1084;64208;-85
2021/08/16 10:02:55;;;;;;;;;;;;;;;30.07;40.31;100771.58;128927;1083;64222;-85
2021/08/16 10:05:23;;;;;;;;;;;;;;;30.06;40.19;100773.46;128539;1082;64147;-86
2021/08/16 10:07:49;;;;;;;;;;;;;;;30.07;40.71;100768.86;128924;1084;64615;-84
2021/08/16 10:10:14;;;;;;;;;;;;;;;30.06;40.24;100761.70;128981;1084;64144;-84
2021/08/16 10:12:40;;;;;;;;;;;;;;;30.07;40.65;100766.13;128944;1083;64135;-86
2021/08/16 10:15:07;;;;;;;;;;;;;;;30.07;40.29;100763.41;128868;1084;64275;-85
2021/08/16 10:17:37;;;;;;;;;;;;;;;30.07;40.13;100758.84;128940;1084;64141;-85
2021/08/16 10:20:04;;;;;;;;;;;;;;;30.06;40.20;100754.41;128901;1084;64105;-85
2021/08/16 10:22:37;;;;;;;;;;;;;;;30.06;40.54;100759.85;128835;1082;64051;-85
2021/08/16 10:25:09;;;;;;;;;;;;;;;30.07;40.34;100753.39;128929;1084;64144;-85
2021/08/16 10:27:35;;;;;;;;;;;;;;;30.07;40.14;100747.08;128962;1082;64163;-85
2021/08/16 10:30:28;;;;;;;;;;;;;;;30.06;40.63;100746.24;128950;1084;64195;-85
2021/08/16 10:33:02;;;;;;;;;;;;;;;30.07;40.33;100733.47;128897;1084;64128;-85
2021/08/16 10:35:37;;;;;;;;;;;;;;;30.05;40.73;100739.09;128562;1084;64192;-85
2021/08/16 10:38:05;;;;;;;;;;;;;;;30.06;40.37;100742.66;128868;1082;64124;-86
2021/08/16 10:40:37;;;;;;;;;;;;;;;30.06;40.60;100740.80;128931;1082;64131;-85
2021/08/16 10:43:07;;;;;;;;;;;;;;;30.06;40.24;100739.93;128891;1082;64131;-86
2021/08/16 10:45:35;;;;;;;;;;;;;;;30.06;40.12;100739.93;128920;1084;64167;-85
2021/08/16 10:48:05;;;;;;;;;;;;;;;30.05;40.34;100722.77;128531;1082;64278;-85
2021/08/16 10:50:31;;;;;;;;;;;;;;;30.05;40.29;100724.64;128958;1084;63937;-86
2021/08/16 10:53:04;;;;;;;;;;;;;;;30.06;40.66;100729.05;128920;1084;64163;-84
2021/08/16 10:55:38;;;;;;;;;;;;;;;30.05;40.78;100725.48;128934;1083;64145;-87
2021/08/16 10:58:08;;;;;;;;;;;;;;;30.04;40.79;100722.94;128882;1084;64169;-85
2021/08/16 11:00:34;;;;;;;;;;;;;;;30.05;40.29;100719.20;128983;1082;64122;-85
2021/08/16 11:03:00;;;;;;;;;;;;;;;30.04;40.41;100718.33;128893;1084;64136;-85
2021/08/16 11:05:33;;;;;;;;;;;;;;;30.04;40.41;100709.33;128905;1084;64447;-85
2021/08/16 11:08:02;;;;;;;;;;;;;;;30.04;40.72;100704.72;128929;1084;64131;-86
2021/08/16 11:10:42;;;;;;;;;;;;;;;30.05;40.47;100697.42;128962;1083;64232;-86
2021/08/16 11:13:13;;;;;;;;;;;;;;;30.04;40.35;100698.44;128538;1084;64395;-86
2021/08/16 11:15:39;;;;;;;;;;;;;;;30.04;40.87;100702.00;128904;1084;64272;-84
2021/08/16 11:18:12;;;;;;;;;;;;;;;30.04;40.74;100691.11;128897;1084;64136;-86
2021/08/16 11:20:39;;;;;;;;;;;;;;;30.04;40.25;100699.28;128957;1083;65017;-86
2021/08/16 11:23:05;;;;;;;;;;;;;;;30.04;40.47;100685.67;128915;1084;64096;-86
2021/08/16 11:25:31;;;;;;;;;;;;;;;30.05;40.27;100689.27;128800;1082;64157;-84
2021/08/16 11:28:01;;;;;;;;;;;;;;;30.04;40.46;100682.95;128826;1084;64211;-84
2021/08/16 11:30:31;;;;;;;;;;;;;;;30.05;40.22;100673.77;128910;1082;64158;-85
2021/08/16 11:32:57;;;;;;;;;;;;;;;30.06;40.65;100677.33;128859;1084;64208;-86
2021/08/16 11:35:23;;;;;;;;;;;;;;;30.05;40.64;100672.94;128855;1082;64099;-85
2021/08/16 11:37:49;;;;;;;;;;;;;;;30.05;40.35;100676.48;128888;1084;64594;-85
2021/08/16 11:40:16;;;;;;;;;;;;;;;30.05;40.65;100681.94;128924;1084;64275;-86
2021/08/16 11:42:42;;;;;;;;;;;;;;;30.06;40.39;100667.31;128940;1082;64259;-85
2021/08/16 11:45:16;;;;;;;;;;;;;;;30.06;40.78;100669.16;128938;1084;64221;-87
2021/08/16 11:47:43;;;;;;;;;;;;;;;30.06;40.26;100667.31;128927;1084;64265;-85
2021/08/16 11:50:11;;;;;;;;;;;;;;;30.06;40.81;100667.31;128979;1084;64160;-85
2021/08/16 11:52:37;;;;;;;;;;;;;;;30.07;40.63;100662.70;128956;1084;64304;-85
2021/08/16 11:55:05;;;;;;;;;;;;;;;30.06;40.37;100661.00;128940;1082;64148;-85
2021/08/16 11:57:32;;;;;;;;;;;;;;;30.07;40.38;100662.70;128925;1084;64132;-85
2021/08/16 11:59:58;;;;;;;;;;;;;;;30.07;40.22;100662.70;128966;1084;64245;-86
2021/08/16 12:02:25;;;;;;;;;;;;;;;30.07;40.78;100673.59;128918;1084;64161;-85
2021/08/16 12:04:54;;;;;;;;;;;;;;;30.08;40.29;100664.41;128934;1084;64131;-86
2021/08/16 12:07:27;;;;;;;;;;;;;;;30.07;40.24;100663.57;128923;1083;64192;-85
2021/08/16 12:09:53;;;;;;;;;;;;;;;30.08;40.20;100657.08;128957;1084;64298;-86
2021/08/16 12:12:22;;;;;;;;;;;;;;;30.09;40.50;100649.78;128924;1084;64168;-86
2021/08/16 12:14:58;;;;;;;;;;;;;;;30.09;40.54;100649.78;128932;1084;64138;-85
2021/08/16 12:17:24;;;;;;;;;;;;;;;30.10;40.77;100646.05;128960;1084;64166;-85
2021/08/16 12:20:00;;;;;;;;;;;;;;;30.09;40.25;100645.18;128981;1083;64137;-85
2021/08/16 12:22:27;;;;;;;;;;;;;;;30.11;40.27;100634.11;128953;1083;64240;-86
2021/08/16 12:25:04;;;;;;;;;;;;;;;30.12;40.30;100632.26;128946;1084;64089;-85
2021/08/16 12:27:31;;;;;;;;;;;;;;;30.12;40.27;100637.70;128929;1084;64221;-85
2021/08/16 12:29:57;;;;;;;;;;;;;;;30.12;40.62;100632.26;128516;1084;64230;-86